sensor_id;sensor_type;location;lat;lon;timestamp;P1;durP1;ratioP1;P2;durP2;ratioP2
17991;SDS011;9121;50.926;5.340;2022-07-29T00:00:40;8.05;;;2.83;;
17991;SDS011;9121;50.926;5.340;2022-07-29T00:03:09;7.68;;;3.13;;
17991;SDS011;9121;50.926;5.340;2022-07-29T00:05:37;6.22;;;2.53;;
17991;SDS011;9121;50.926;5.340;2022-07-29T00:08:06;6.63;;;2.53;;
17991;SDS011;9121;50.926;5.340;2022-07-29T00:10:34;6.57;;;2.72;;
17991;SDS011;9121;50.926;5.340;2022-07-29T00:13:04;8.60;;;2.67;;
17991;SDS011;9121;50.926;5.340;2022-07-29T00:15:31;10.75;;;2.88;;
17991;SDS011;9121;50.926;5.340;2022-07-29T00:17:58;7.13;;;2.78;;
17991;SDS011;9121;50.926;5.340;2022-07-29T00:20:25;8.13;;;2.83;;
17991;SDS011;9121;50.926;5.340;2022-07-29T00:22:52;7.82;;;3.00;;
17991;SDS011;9121;50.926;5.340;2022-07-29T00:25:20;8.93;;;2.78;;
17991;SDS011;9121;50.926;5.340;2022-07-29T00:27:47;13.73;;;2.88;;
17991;SDS011;9121;50.926;5.340;2022-07-29T00:30:14;9.95;;;2.40;;
17991;SDS011;9121;50.926;5.340;2022-07-29T00:32:41;9.02;;;2.47;;
17991;SDS011;9121;50.926;5.340;2022-07-29T00:35:08;6.10;;;2.30;;
17991;SDS011;9121;50.926;5.340;2022-07-29T00:37:53;12.77;;;2.53;;
17991;SDS011;9121;50.926;5.340;2022-07-29T00:40:21;5.93;;;2.50;;
17991;SDS011;9121;50.926;5.340;2022-07-29T00:42:49;6.18;;;2.55;;
17991;SDS011;9121;50.926;5.340;2022-07-29T00:45:16;6.15;;;2.60;;
17991;SDS011;9121;50.926;5.340;2022-07-29T00:47:44;4.13;;;2.65;;
17991;SDS011;9121;50.926;5.340;2022-07-29T00:50:11;10.63;;;2.78;;
17991;SDS011;9121;50.926;5.340;2022-07-29T00:52:39;7.25;;;2.55;;
17991;SDS011;9121;50.926;5.340;2022-07-29T00:55:07;6.47;;;2.70;;
17991;SDS011;9121;50.926;5.340;2022-07-29T00:57:38;5.68;;;2.83;;
17991;SDS011;9121;50.926;5.340;2022-07-29T01:00:07;6.15;;;2.80;;
17991;SDS011;9121;50.926;5.340;2022-07-29T01:02:36;6.78;;;2.58;;
17991;SDS011;9121;50.926;5.340;2022-07-29T01:05:03;5.95;;;2.63;;
17991;SDS011;9121;50.926;5.340;2022-07-29T01:07:31;7.05;;;2.65;;
17991;SDS011;9121;50.926;5.340;2022-07-29T01:10:00;6.40;;;2.53;;
17991;SDS011;9121;50.926;5.340;2022-07-29T01:12:28;11.55;;;2.63;;
17991;SDS011;9121;50.926;5.340;2022-07-29T01:14:59;6.70;;;2.72;;
17991;SDS011;9121;50.926;5.340;2022-07-29T01:17:28;8.73;;;2.92;;
17991;SDS011;9121;50.926;5.340;2022-07-29T01:20:03;16.48;;;3.63;;
17991;SDS011;9121;50.926;5.340;2022-07-29T01:22:37;10.80;;;2.50;;
17991;SDS011;9121;50.926;5.340;2022-07-29T01:25:30;7.70;;;3.10;;
17991;SDS011;9121;50.926;5.340;2022-07-29T01:28:21;11.50;;;2.85;;
17991;SDS011;9121;50.926;5.340;2022-07-29T01:31:16;11.45;;;2.88;;
17991;SDS011;9121;50.926;5.340;2022-07-29T01:33:48;6.57;;;2.92;;
17991;SDS011;9121;50.926;5.340;2022-07-29T01:36:23;6.63;;;2.28;;
17991;SDS011;9121;50.926;5.340;2022-07-29T01:38:54;10.32;;;3.00;;
17991;SDS011;9121;50.926;5.340;2022-07-29T01:41:26;7.10;;;2.70;;
17991;SDS011;9121;50.926;5.340;2022-07-29T01:44:00;11.15;;;2.95;;
17991;SDS011;9121;50.926;5.340;2022-07-29T01:46:34;9.48;;;3.28;;
17991;SDS011;9121;50.926;5.340;2022-07-29T01:49:06;6.50;;;3.15;;
17991;SDS011;9121;50.926;5.340;2022-07-29T01:51:38;10.07;;;3.55;;
17991;SDS011;9121;50.926;5.340;2022-07-29T01:54:10;10.63;;;4.50;;
17991;SDS011;9121;50.926;5.340;2022-07-29T01:56:42;5.95;;;3.70;;
17991;SDS011;9121;50.926;5.340;2022-07-29T01:59:11;7.95;;;3.30;;
17991;SDS011;9121;50.926;5.340;2022-07-29T02:01:40;5.72;;;3.20;;
17991;SDS011;9121;50.926;5.340;2022-07-29T02:04:09;9.52;;;3.45;;
17991;SDS011;9121;50.926;5.340;2022-07-29T02:06:38;8.07;;;3.22;;
17991;SDS011;9121;50.926;5.340;2022-07-29T02:09:07;8.85;;;3.63;;
17991;SDS011;9121;50.926;5.340;2022-07-29T02:11:37;6.60;;;3.63;;
17991;SDS011;9121;50.926;5.340;2022-07-29T02:14:05;11.43;;;3.72;;
17991;SDS011;9121;50.926;5.340;2022-07-29T02:16:34;5.50;;;3.40;;
17991;SDS011;9121;50.926;5.340;2022-07-29T02:19:04;9.18;;;3.53;;
17991;SDS011;9121;50.926;5.340;2022-07-29T02:21:32;8.95;;;4.00;;
17991;SDS011;9121;50.926;5.340;2022-07-29T02:24:01;7.95;;;3.90;;
17991;SDS011;9121;50.926;5.340;2022-07-29T02:26:30;7.05;;;3.35;;
17991;SDS011;9121;50.926;5.340;2022-07-29T02:28:59;7.88;;;3.90;;
17991;SDS011;9121;50.926;5.340;2022-07-29T02:31:28;7.78;;;3.40;;
17991;SDS011;9121;50.926;5.340;2022-07-29T02:33:58;11.07;;;3.38;;
17991;SDS011;9121;50.926;5.340;2022-07-29T02:36:29;10.82;;;4.55;;
17991;SDS011;9121;50.926;5.340;2022-07-29T02:38:57;7.63;;;3.65;;
17991;SDS011;9121;50.926;5.340;2022-07-29T02:41:27;9.73;;;3.35;;
17991;SDS011;9121;50.926;5.340;2022-07-29T02:43:58;10.82;;;3.65;;
17991;SDS011;9121;50.926;5.340;2022-07-29T02:46:31;8.32;;;3.42;;
17991;SDS011;9121;50.926;5.340;2022-07-29T02:49:02;4.40;;;2.80;;
17991;SDS011;9121;50.926;5.340;2022-07-29T02:51:39;9.52;;;2.97;;
17991;SDS011;9121;50.926;5.340;2022-07-29T02:54:09;10.55;;;3.38;;
17991;SDS011;9121;50.926;5.340;2022-07-29T02:56:40;8.25;;;3.30;;
17991;SDS011;9121;50.926;5.340;2022-07-29T02:59:10;9.30;;;3.78;;
17991;SDS011;9121;50.926;5.340;2022-07-29T03:01:40;10.68;;;3.60;;
17991;SDS011;9121;50.926;5.340;2022-07-29T03:04:09;5.85;;;3.10;;
17991;SDS011;9121;50.926;5.340;2022-07-29T03:06:39;8.50;;;3.38;;
17991;SDS011;9121;50.926;5.340;2022-07-29T03:09:07;6.03;;;3.25;;
17991;SDS011;9121;50.926;5.340;2022-07-29T03:11:35;11.75;;;3.45;;
17991;SDS011;9121;50.926;5.340;2022-07-29T03:14:02;8.57;;;3.20;;
17991;SDS011;9121;50.926;5.340;2022-07-29T03:16:30;7.88;;;3.42;;
17991;SDS011;9121;50.926;5.340;2022-07-29T03:18:57;7.05;;;3.38;;
17991;SDS011;9121;50.926;5.340;2022-07-29T03:21:25;5.00;;;3.17;;
17991;SDS011;9121;50.926;5.340;2022-07-29T03:23:53;8.23;;;3.38;;
17991;SDS011;9121;50.926;5.340;2022-07-29T03:26:20;7.70;;;3.60;;
17991;SDS011;9121;50.926;5.340;2022-07-29T03:28:47;7.90;;;3.22;;
17991;SDS011;9121;50.926;5.340;2022-07-29T03:31:14;8.50;;;3.92;;
17991;SDS011;9121;50.926;5.340;2022-07-29T03:33:41;10.40;;;3.97;;
17991;SDS011;9121;50.926;5.340;2022-07-29T03:36:08;7.68;;;4.22;;
17991;SDS011;9121;50.926;5.340;2022-07-29T03:38:35;5.45;;;3.60;;
17991;SDS011;9121;50.926;5.340;2022-07-29T03:41:05;10.00;;;3.67;;
17991;SDS011;9121;50.926;5.340;2022-07-29T03:43:35;7.70;;;3.88;;
17991;SDS011;9121;50.926;5.340;2022-07-29T03:46:05;9.70;;;3.90;;
17991;SDS011;9121;50.926;5.340;2022-07-29T03:48:34;5.88;;;3.80;;
17991;SDS011;9121;50.926;5.340;2022-07-29T03:51:05;9.30;;;4.07;;
17991;SDS011;9121;50.926;5.340;2022-07-29T03:53:32;8.75;;;4.15;;
17991;SDS011;9121;50.926;5.340;2022-07-29T03:56:00;12.85;;;3.78;;
17991;SDS011;9121;50.926;5.340;2022-07-29T03:58:30;10.68;;;3.30;;
17991;SDS011;9121;50.926;5.340;2022-07-29T04:00:58;10.80;;;3.42;;
17991;SDS011;9121;50.926;5.340;2022-07-29T04:03:26;4.63;;;3.22;;
17991;SDS011;9121;50.926;5.340;2022-07-29T04:05:59;9.18;;;3.42;;
17991;SDS011;9121;50.926;5.340;2022-07-29T04:08:27;11.68;;;3.45;;
17991;SDS011;9121;50.926;5.340;2022-07-29T04:10:54;6.78;;;3.33;;
17991;SDS011;9121;50.926;5.340;2022-07-29T04:13:21;6.43;;;3.40;;
17991;SDS011;9121;50.926;5.340;2022-07-29T04:15:49;13.02;;;3.47;;
17991;SDS011;9121;50.926;5.340;2022-07-29T04:18:16;7.53;;;3.53;;
17991;SDS011;9121;50.926;5.340;2022-07-29T04:20:43;11.95;;;3.63;;
17991;SDS011;9121;50.926;5.340;2022-07-29T04:23:10;6.20;;;3.28;;
17991;SDS011;9121;50.926;5.340;2022-07-29T04:25:37;8.18;;;3.72;;
17991;SDS011;9121;50.926;5.340;2022-07-29T04:28:04;10.40;;;3.78;;
17991;SDS011;9121;50.926;5.340;2022-07-29T04:30:32;11.52;;;4.05;;
17991;SDS011;9121;50.926;5.340;2022-07-29T04:33:01;11.68;;;4.18;;
17991;SDS011;9121;50.926;5.340;2022-07-29T04:35:29;12.43;;;4.13;;
17991;SDS011;9121;50.926;5.340;2022-07-29T04:37:56;9.30;;;4.13;;
17991;SDS011;9121;50.926;5.340;2022-07-29T04:40:23;7.07;;;3.50;;
17991;SDS011;9121;50.926;5.340;2022-07-29T04:42:50;6.80;;;3.28;;
17991;SDS011;9121;50.926;5.340;2022-07-29T04:45:17;7.65;;;3.40;;
17991;SDS011;9121;50.926;5.340;2022-07-29T04:47:44;8.38;;;3.83;;
17991;SDS011;9121;50.926;5.340;2022-07-29T04:50:12;13.93;;;3.67;;
17991;SDS011;9121;50.926;5.340;2022-07-29T04:52:39;7.53;;;3.60;;
17991;SDS011;9121;50.926;5.340;2022-07-29T04:55:06;13.23;;;3.95;;
17991;SDS011;9121;50.926;5.340;2022-07-29T04:57:34;7.00;;;3.80;;
17991;SDS011;9121;50.926;5.340;2022-07-29T05:00:01;5.95;;;3.78;;
17991;SDS011;9121;50.926;5.340;2022-07-29T05:02:29;10.27;;;4.35;;
17991;SDS011;9121;50.926;5.340;2022-07-29T05:04:56;8.25;;;4.68;;
17991;SDS011;9121;50.926;5.340;2022-07-29T05:07:24;12.23;;;4.35;;
17991;SDS011;9121;50.926;5.340;2022-07-29T05:09:51;8.25;;;4.22;;
17991;SDS011;9121;50.926;5.340;2022-07-29T05:12:18;5.75;;;4.60;;
17991;SDS011;9121;50.926;5.340;2022-07-29T05:14:45;7.60;;;4.22;;
17991;SDS011;9121;50.926;5.340;2022-07-29T05:17:12;8.43;;;4.47;;
17991;SDS011;9121;50.926;5.340;2022-07-29T05:19:39;6.70;;;4.57;;
17991;SDS011;9121;50.926;5.340;2022-07-29T05:22:06;9.40;;;4.80;;
17991;SDS011;9121;50.926;5.340;2022-07-29T05:24:34;14.75;;;5.35;;
17991;SDS011;9121;50.926;5.340;2022-07-29T05:27:01;10.30;;;4.93;;
17991;SDS011;9121;50.926;5.340;2022-07-29T05:29:28;9.85;;;4.80;;
17991;SDS011;9121;50.926;5.340;2022-07-29T05:31:55;12.27;;;4.80;;
17991;SDS011;9121;50.926;5.340;2022-07-29T05:34:22;12.40;;;6.00;;
17991;SDS011;9121;50.926;5.340;2022-07-29T05:36:50;8.93;;;4.90;;
17991;SDS011;9121;50.926;5.340;2022-07-29T05:39:17;9.45;;;5.15;;
17991;SDS011;9121;50.926;5.340;2022-07-29T05:41:45;12.63;;;5.63;;
17991;SDS011;9121;50.926;5.340;2022-07-29T05:44:12;10.32;;;5.38;;
17991;SDS011;9121;50.926;5.340;2022-07-29T05:46:39;9.20;;;4.60;;
17991;SDS011;9121;50.926;5.340;2022-07-29T05:49:06;13.77;;;6.20;;
17991;SDS011;9121;50.926;5.340;2022-07-29T05:51:33;9.32;;;5.63;;
17991;SDS011;9121;50.926;5.340;2022-07-29T05:54:00;10.77;;;4.93;;
17991;SDS011;9121;50.926;5.340;2022-07-29T05:56:27;12.55;;;5.60;;
17991;SDS011;9121;50.926;5.340;2022-07-29T05:58:56;10.57;;;5.78;;
17991;SDS011;9121;50.926;5.340;2022-07-29T06:01:23;9.52;;;5.60;;
17991;SDS011;9121;50.926;5.340;2022-07-29T06:03:51;9.40;;;5.28;;
17991;SDS011;9121;50.926;5.340;2022-07-29T06:06:18;12.68;;;5.78;;
17991;SDS011;9121;50.926;5.340;2022-07-29T06:08:45;10.52;;;5.82;;
17991;SDS011;9121;50.926;5.340;2022-07-29T06:11:12;12.70;;;5.53;;
17991;SDS011;9121;50.926;5.340;2022-07-29T06:13:39;10.00;;;5.10;;
17991;SDS011;9121;50.926;5.340;2022-07-29T06:16:08;11.98;;;5.45;;
17991;SDS011;9121;50.926;5.340;2022-07-29T06:18:35;8.85;;;5.20;;
17991;SDS011;9121;50.926;5.340;2022-07-29T06:21:01;13.10;;;5.28;;
17991;SDS011;9121;50.926;5.340;2022-07-29T06:23:34;11.93;;;5.68;;
17991;SDS011;9121;50.926;5.340;2022-07-29T06:26:02;8.20;;;5.82;;
17991;SDS011;9121;50.926;5.340;2022-07-29T06:28:29;10.65;;;5.20;;
17991;SDS011;9121;50.926;5.340;2022-07-29T06:30:56;10.80;;;5.70;;
17991;SDS011;9121;50.926;5.340;2022-07-29T06:33:24;9.85;;;5.13;;
17991;SDS011;9121;50.926;5.340;2022-07-29T06:35:51;7.45;;;4.95;;
17991;SDS011;9121;50.926;5.340;2022-07-29T06:38:18;10.15;;;5.22;;
17991;SDS011;9121;50.926;5.340;2022-07-29T06:40:45;9.23;;;5.25;;
17991;SDS011;9121;50.926;5.340;2022-07-29T06:43:29;8.85;;;5.05;;
17991;SDS011;9121;50.926;5.340;2022-07-29T06:45:59;10.20;;;5.30;;
17991;SDS011;9121;50.926;5.340;2022-07-29T06:48:28;10.00;;;5.50;;
17991;SDS011;9121;50.926;5.340;2022-07-29T06:50:55;10.43;;;5.72;;
17991;SDS011;9121;50.926;5.340;2022-07-29T06:53:22;10.73;;;5.38;;
17991;SDS011;9121;50.926;5.340;2022-07-29T06:55:49;12.68;;;5.15;;
17991;SDS011;9121;50.926;5.340;2022-07-29T06:58:16;17.20;;;6.00;;
17991;SDS011;9121;50.926;5.340;2022-07-29T07:00:45;11.27;;;5.70;;
17991;SDS011;9121;50.926;5.340;2022-07-29T07:03:12;15.77;;;5.53;;
17991;SDS011;9121;50.926;5.340;2022-07-29T07:05:41;12.57;;;5.50;;
17991;SDS011;9121;50.926;5.340;2022-07-29T07:08:08;13.20;;;5.28;;
17991;SDS011;9121;50.926;5.340;2022-07-29T07:10:35;7.72;;;5.22;;
17991;SDS011;9121;50.926;5.340;2022-07-29T07:13:02;11.52;;;5.25;;
17991;SDS011;9121;50.926;5.340;2022-07-29T07:15:31;12.60;;;5.63;;
17991;SDS011;9121;50.926;5.340;2022-07-29T07:17:58;11.35;;;5.50;;
17991;SDS011;9121;50.926;5.340;2022-07-29T07:20:25;11.15;;;5.45;;
17991;SDS011;9121;50.926;5.340;2022-07-29T07:22:54;9.63;;;5.53;;
17991;SDS011;9121;50.926;5.340;2022-07-29T07:25:21;8.48;;;5.50;;
17991;SDS011;9121;50.926;5.340;2022-07-29T07:27:48;14.43;;;5.95;;
17991;SDS011;9121;50.926;5.340;2022-07-29T07:30:15;10.02;;;5.75;;
17991;SDS011;9121;50.926;5.340;2022-07-29T07:32:42;8.85;;;6.18;;
17991;SDS011;9121;50.926;5.340;2022-07-29T07:35:09;8.48;;;5.35;;
17991;SDS011;9121;50.926;5.340;2022-07-29T07:37:37;10.25;;;5.75;;
17991;SDS011;9121;50.926;5.340;2022-07-29T07:40:07;8.13;;;5.93;;
17991;SDS011;9121;50.926;5.340;2022-07-29T07:42:36;11.88;;;5.30;;
17991;SDS011;9121;50.926;5.340;2022-07-29T07:45:04;10.43;;;6.43;;
17991;SDS011;9121;50.926;5.340;2022-07-29T07:47:32;12.48;;;6.38;;
17991;SDS011;9121;50.926;5.340;2022-07-29T07:49:59;12.15;;;6.20;;
17991;SDS011;9121;50.926;5.340;2022-07-29T07:52:26;16.25;;;6.03;;
17991;SDS011;9121;50.926;5.340;2022-07-29T07:54:53;10.63;;;6.72;;
17991;SDS011;9121;50.926;5.340;2022-07-29T07:57:21;11.82;;;6.38;;
17991;SDS011;9121;50.926;5.340;2022-07-29T07:59:48;9.55;;;5.78;;
17991;SDS011;9121;50.926;5.340;2022-07-29T08:02:15;24.20;;;5.70;;
17991;SDS011;9121;50.926;5.340;2022-07-29T08:04:42;10.13;;;5.35;;
17991;SDS011;9121;50.926;5.340;2022-07-29T08:07:10;9.70;;;5.40;;
17991;SDS011;9121;50.926;5.340;2022-07-29T08:09:37;9.40;;;5.10;;
17991;SDS011;9121;50.926;5.340;2022-07-29T08:12:04;14.50;;;5.20;;
17991;SDS011;9121;50.926;5.340;2022-07-29T08:14:33;9.25;;;4.88;;
17991;SDS011;9121;50.926;5.340;2022-07-29T08:16:59;11.38;;;5.05;;
17991;SDS011;9121;50.926;5.340;2022-07-29T08:19:26;9.07;;;4.55;;
17991;SDS011;9121;50.926;5.340;2022-07-29T08:21:53;11.80;;;5.30;;
17991;SDS011;9121;50.926;5.340;2022-07-29T08:24:21;5.97;;;4.07;;
17991;SDS011;9121;50.926;5.340;2022-07-29T08:27:06;12.70;;;4.63;;
17991;SDS011;9121;50.926;5.340;2022-07-29T08:29:34;10.95;;;4.43;;
17991;SDS011;9121;50.926;5.340;2022-07-29T08:32:01;9.73;;;4.72;;
17991;SDS011;9121;50.926;5.340;2022-07-29T08:34:29;7.85;;;4.63;;
17991;SDS011;9121;50.926;5.340;2022-07-29T08:36:56;9.40;;;4.60;;
17991;SDS011;9121;50.926;5.340;2022-07-29T08:39:24;9.68;;;4.80;;
17991;SDS011;9121;50.926;5.340;2022-07-29T08:41:51;8.60;;;5.20;;
17991;SDS011;9121;50.926;5.340;2022-07-29T08:44:19;9.70;;;4.30;;
17991;SDS011;9121;50.926;5.340;2022-07-29T08:46:48;8.57;;;4.40;;
17991;SDS011;9121;50.926;5.340;2022-07-29T08:49:16;11.07;;;4.40;;
17991;SDS011;9121;50.926;5.340;2022-07-29T08:51:43;10.60;;;4.97;;
17991;SDS011;9121;50.926;5.340;2022-07-29T08:54:10;8.15;;;4.47;;
17991;SDS011;9121;50.926;5.340;2022-07-29T08:56:42;10.13;;;5.00;;
17991;SDS011;9121;50.926;5.340;2022-07-29T08:59:09;9.75;;;4.50;;
17991;SDS011;9121;50.926;5.340;2022-07-29T09:01:38;10.63;;;5.22;;
17991;SDS011;9121;50.926;5.340;2022-07-29T09:04:08;6.82;;;4.47;;
17991;SDS011;9121;50.926;5.340;2022-07-29T09:06:38;8.85;;;4.72;;
17991;SDS011;9121;50.926;5.340;2022-07-29T09:09:08;9.38;;;4.40;;
17991;SDS011;9121;50.926;5.340;2022-07-29T09:11:35;10.52;;;5.03;;
17991;SDS011;9121;50.926;5.340;2022-07-29T09:14:04;11.82;;;5.55;;
17991;SDS011;9121;50.926;5.340;2022-07-29T09:16:46;9.20;;;5.05;;
17991;SDS011;9121;50.926;5.340;2022-07-29T09:19:21;8.00;;;4.75;;
17991;SDS011;9121;50.926;5.340;2022-07-29T09:21:49;10.82;;;4.30;;
17991;SDS011;9121;50.926;5.340;2022-07-29T09:27:10;8.80;;;4.75;;
17991;SDS011;9121;50.926;5.340;2022-07-29T09:29:44;13.93;;;4.60;;
17991;SDS011;9121;50.926;5.340;2022-07-29T09:32:11;8.23;;;4.85;;
17991;SDS011;9121;50.926;5.340;2022-07-29T09:34:40;11.10;;;5.50;;
17991;SDS011;9121;50.926;5.340;2022-07-29T09:37:07;8.27;;;4.63;;
17991;SDS011;9121;50.926;5.340;2022-07-29T09:39:35;16.15;;;5.35;;
17991;SDS011;9121;50.926;5.340;2022-07-29T09:42:10;9.82;;;4.80;;
17991;SDS011;9121;50.926;5.340;2022-07-29T09:44:42;9.75;;;4.97;;
17991;SDS011;9121;50.926;5.340;2022-07-29T09:47:10;10.82;;;4.75;;
17991;SDS011;9121;50.926;5.340;2022-07-29T09:49:51;8.30;;;4.65;;
17991;SDS011;9121;50.926;5.340;2022-07-29T09:52:19;8.18;;;5.22;;
17991;SDS011;9121;50.926;5.340;2022-07-29T09:54:47;10.75;;;5.22;;
17991;SDS011;9121;50.926;5.340;2022-07-29T09:57:21;5.55;;;4.13;;
17991;SDS011;9121;50.926;5.340;2022-07-29T10:00:00;9.52;;;5.10;;
17991;SDS011;9121;50.926;5.340;2022-07-29T10:02:31;8.90;;;4.63;;
17991;SDS011;9121;50.926;5.340;2022-07-29T10:05:00;11.05;;;4.15;;
17991;SDS011;9121;50.926;5.340;2022-07-29T10:07:42;8.57;;;4.43;;
17991;SDS011;9121;50.926;5.340;2022-07-29T10:10:10;6.97;;;4.45;;
17991;SDS011;9121;50.926;5.340;2022-07-29T10:12:51;6.90;;;4.20;;
17991;SDS011;9121;50.926;5.340;2022-07-29T10:15:21;8.55;;;3.78;;
17991;SDS011;9121;50.926;5.340;2022-07-29T10:17:49;9.77;;;3.88;;
17991;SDS011;9121;50.926;5.340;2022-07-29T10:20:18;5.30;;;3.40;;
17991;SDS011;9121;50.926;5.340;2022-07-29T10:22:45;7.55;;;3.13;;
17991;SDS011;9121;50.926;5.340;2022-07-29T10:25:14;7.65;;;3.53;;
17991;SDS011;9121;50.926;5.340;2022-07-29T10:27:42;7.53;;;4.00;;
17991;SDS011;9121;50.926;5.340;2022-07-29T10:30:10;12.65;;;3.08;;
17991;SDS011;9121;50.926;5.340;2022-07-29T10:32:46;5.45;;;3.40;;
17991;SDS011;9121;50.926;5.340;2022-07-29T10:35:33;13.45;;;4.25;;
17991;SDS011;9121;50.926;5.340;2022-07-29T10:38:27;7.47;;;3.53;;
17991;SDS011;9121;50.926;5.340;2022-07-29T10:41:11;6.53;;;3.22;;
17991;SDS011;9121;50.926;5.340;2022-07-29T10:43:55;10.43;;;3.78;;
17991;SDS011;9121;50.926;5.340;2022-07-29T10:46:25;4.20;;;3.10;;
17991;SDS011;9121;50.926;5.340;2022-07-29T10:49:06;7.68;;;3.42;;
17991;SDS011;9121;50.926;5.340;2022-07-29T10:54:38;5.85;;;3.08;;
17991;SDS011;9121;50.926;5.340;2022-07-29T10:57:16;4.57;;;2.70;;
17991;SDS011;9121;50.926;5.340;2022-07-29T10:59:46;5.05;;;2.88;;
17991;SDS011;9121;50.926;5.340;2022-07-29T11:05:17;4.85;;;2.75;;
17991;SDS011;9121;50.926;5.340;2022-07-29T11:10:46;10.50;;;2.90;;
17991;SDS011;9121;50.926;5.340;2022-07-29T11:13:17;10.38;;;2.90;;
17991;SDS011;9121;50.926;5.340;2022-07-29T11:16:15;9.30;;;2.35;;
17991;SDS011;9121;50.926;5.340;2022-07-29T11:21:48;4.93;;;2.72;;
17991;SDS011;9121;50.926;5.340;2022-07-29T11:24:20;6.63;;;2.88;;
17991;SDS011;9121;50.926;5.340;2022-07-29T11:27:11;6.07;;;2.50;;
17991;SDS011;9121;50.926;5.340;2022-07-29T11:29:47;8.50;;;2.58;;
17991;SDS011;9121;50.926;5.340;2022-07-29T11:32:16;4.88;;;2.88;;
17991;SDS011;9121;50.926;5.340;2022-07-29T11:34:45;8.88;;;2.97;;
17991;SDS011;9121;50.926;5.340;2022-07-29T11:37:22;7.40;;;2.72;;
17991;SDS011;9121;50.926;5.340;2022-07-29T11:40:14;5.30;;;2.45;;
17991;SDS011;9121;50.926;5.340;2022-07-29T11:42:43;3.40;;;2.35;;
17991;SDS011;9121;50.926;5.340;2022-07-29T11:45:15;5.90;;;2.40;;
17991;SDS011;9121;50.926;5.340;2022-07-29T11:47:48;4.00;;;2.50;;
17991;SDS011;9121;50.926;5.340;2022-07-29T11:50:17;6.20;;;2.70;;
17991;SDS011;9121;50.926;5.340;2022-07-29T11:52:53;6.78;;;3.33;;
17991;SDS011;9121;50.926;5.340;2022-07-29T11:55:22;5.00;;;2.60;;
17991;SDS011;9121;50.926;5.340;2022-07-29T11:57:50;6.25;;;2.88;;
17991;SDS011;9121;50.926;5.340;2022-07-29T12:00:26;4.18;;;2.35;;
17991;SDS011;9121;50.926;5.340;2022-07-29T12:02:55;4.75;;;2.10;;
17991;SDS011;9121;50.926;5.340;2022-07-29T12:05:30;3.95;;;2.60;;
17991;SDS011;9121;50.926;5.340;2022-07-29T12:08:06;6.40;;;3.13;;
17991;SDS011;9121;50.926;5.340;2022-07-29T12:10:36;4.40;;;2.47;;
17991;SDS011;9121;50.926;5.340;2022-07-29T12:13:03;7.93;;;3.53;;
17991;SDS011;9121;50.926;5.340;2022-07-29T12:15:30;5.70;;;3.00;;
17991;SDS011;9121;50.926;5.340;2022-07-29T12:17:57;6.40;;;2.95;;
17991;SDS011;9121;50.926;5.340;2022-07-29T12:20:25;7.38;;;2.97;;
17991;SDS011;9121;50.926;5.340;2022-07-29T12:22:53;6.85;;;3.25;;
17991;SDS011;9121;50.926;5.340;2022-07-29T12:25:21;7.40;;;3.03;;
17991;SDS011;9121;50.926;5.340;2022-07-29T12:28:00;8.00;;;3.17;;
17991;SDS011;9121;50.926;5.340;2022-07-29T12:30:36;7.90;;;2.85;;
17991;SDS011;9121;50.926;5.340;2022-07-29T12:33:11;6.30;;;2.55;;
17991;SDS011;9121;50.926;5.340;2022-07-29T12:35:40;6.82;;;2.40;;
17991;SDS011;9121;50.926;5.340;2022-07-29T12:38:09;4.57;;;2.28;;
17991;SDS011;9121;50.926;5.340;2022-07-29T12:40:37;3.80;;;2.28;;
17991;SDS011;9121;50.926;5.340;2022-07-29T12:43:06;4.80;;;2.33;;
17991;SDS011;9121;50.926;5.340;2022-07-29T12:45:34;6.20;;;2.13;;
17991;SDS011;9121;50.926;5.340;2022-07-29T12:48:01;6.28;;;2.20;;
17991;SDS011;9121;50.926;5.340;2022-07-29T12:50:28;5.45;;;3.97;;
17991;SDS011;9121;50.926;5.340;2022-07-29T12:53:07;4.05;;;2.45;;
17991;SDS011;9121;50.926;5.340;2022-07-29T12:55:40;4.72;;;2.10;;
17991;SDS011;9121;50.926;5.340;2022-07-29T12:58:09;6.63;;;3.33;;
17991;SDS011;9121;50.926;5.340;2022-07-29T13:00:36;5.53;;;2.50;;
17991;SDS011;9121;50.926;5.340;2022-07-29T13:03:03;20.88;;;3.95;;
17991;SDS011;9121;50.926;5.340;2022-07-29T13:05:40;7.07;;;2.72;;
17991;SDS011;9121;50.926;5.340;2022-07-29T13:08:10;4.63;;;2.00;;
17991;SDS011;9121;50.926;5.340;2022-07-29T13:10:40;6.03;;;2.15;;
17991;SDS011;9121;50.926;5.340;2022-07-29T13:13:11;5.97;;;2.53;;
17991;SDS011;9121;50.926;5.340;2022-07-29T13:15:39;6.50;;;3.05;;
17991;SDS011;9121;50.926;5.340;2022-07-29T13:20:55;6.75;;;3.03;;
17991;SDS011;9121;50.926;5.340;2022-07-29T13:23:22;8.38;;;2.10;;
17991;SDS011;9121;50.926;5.340;2022-07-29T13:25:49;8.63;;;2.30;;
17991;SDS011;9121;50.926;5.340;2022-07-29T13:28:18;6.95;;;2.45;;
17991;SDS011;9121;50.926;5.340;2022-07-29T13:30:46;5.18;;;2.53;;
17991;SDS011;9121;50.926;5.340;2022-07-29T13:33:13;5.90;;;2.20;;
17991;SDS011;9121;50.926;5.340;2022-07-29T13:35:40;6.07;;;2.20;;
17991;SDS011;9121;50.926;5.340;2022-07-29T13:38:07;4.47;;;2.33;;
17991;SDS011;9121;50.926;5.340;2022-07-29T13:40:34;3.58;;;1.60;;
17991;SDS011;9121;50.926;5.340;2022-07-29T13:43:01;2.33;;;1.90;;
17991;SDS011;9121;50.926;5.340;2022-07-29T13:45:29;4.55;;;2.20;;
17991;SDS011;9121;50.926;5.340;2022-07-29T13:47:56;6.10;;;1.90;;
17991;SDS011;9121;50.926;5.340;2022-07-29T13:50:23;6.40;;;2.10;;
17991;SDS011;9121;50.926;5.340;2022-07-29T13:52:50;5.22;;;1.75;;
17991;SDS011;9121;50.926;5.340;2022-07-29T13:55:17;2.47;;;1.60;;
17991;SDS011;9121;50.926;5.340;2022-07-29T13:57:44;5.30;;;1.90;;
17991;SDS011;9121;50.926;5.340;2022-07-29T14:00:12;5.95;;;2.08;;
17991;SDS011;9121;50.926;5.340;2022-07-29T14:02:41;3.80;;;1.90;;
17991;SDS011;9121;50.926;5.340;2022-07-29T14:05:08;7.30;;;1.88;;
17991;SDS011;9121;50.926;5.340;2022-07-29T14:07:36;5.00;;;1.80;;
17991;SDS011;9121;50.926;5.340;2022-07-29T14:10:03;6.63;;;1.88;;
17991;SDS011;9121;50.926;5.340;2022-07-29T14:12:31;7.00;;;1.80;;
17991;SDS011;9121;50.926;5.340;2022-07-29T14:14:58;2.67;;;1.58;;
17991;SDS011;9121;50.926;5.340;2022-07-29T14:17:25;3.85;;;1.75;;
17991;SDS011;9121;50.926;5.340;2022-07-29T14:19:53;3.85;;;1.80;;
17991;SDS011;9121;50.926;5.340;2022-07-29T14:22:20;4.80;;;1.80;;
17991;SDS011;9121;50.926;5.340;2022-07-29T14:24:47;3.22;;;1.67;;
17991;SDS011;9121;50.926;5.340;2022-07-29T14:27:14;3.22;;;1.60;;
17991;SDS011;9121;50.926;5.340;2022-07-29T14:29:41;3.67;;;1.90;;
17991;SDS011;9121;50.926;5.340;2022-07-29T14:32:08;4.93;;;1.75;;
17991;SDS011;9121;50.926;5.340;2022-07-29T14:34:36;7.75;;;2.22;;
17991;SDS011;9121;50.926;5.340;2022-07-29T14:37:06;6.20;;;1.77;;
17991;SDS011;9121;50.926;5.340;2022-07-29T14:39:33;7.53;;;1.90;;
17991;SDS011;9121;50.926;5.340;2022-07-29T14:42:01;5.93;;;2.30;;
17991;SDS011;9121;50.926;5.340;2022-07-29T14:44:28;4.43;;;2.10;;
17991;SDS011;9121;50.926;5.340;2022-07-29T14:46:56;6.65;;;2.03;;
17991;SDS011;9121;50.926;5.340;2022-07-29T14:49:24;3.97;;;1.85;;
17991;SDS011;9121;50.926;5.340;2022-07-29T14:51:51;8.90;;;2.47;;
17991;SDS011;9121;50.926;5.340;2022-07-29T14:54:19;5.28;;;1.80;;
17991;SDS011;9121;50.926;5.340;2022-07-29T14:56:46;3.88;;;1.88;;
17991;SDS011;9121;50.926;5.340;2022-07-29T14:59:14;3.45;;;1.50;;
17991;SDS011;9121;50.926;5.340;2022-07-29T15:01:41;5.40;;;1.65;;
17991;SDS011;9121;50.926;5.340;2022-07-29T15:04:08;3.65;;;2.00;;
17991;SDS011;9121;50.926;5.340;2022-07-29T15:06:35;4.35;;;2.00;;
17991;SDS011;9121;50.926;5.340;2022-07-29T15:09:02;4.57;;;2.15;;
17991;SDS011;9121;50.926;5.340;2022-07-29T15:11:31;7.90;;;2.03;;
17991;SDS011;9121;50.926;5.340;2022-07-29T15:13:58;7.03;;;2.30;;
17991;SDS011;9121;50.926;5.340;2022-07-29T15:16:25;6.50;;;2.13;;
17991;SDS011;9121;50.926;5.340;2022-07-29T15:18:52;8.15;;;2.47;;
17991;SDS011;9121;50.926;5.340;2022-07-29T15:21:18;8.60;;;2.47;;
17991;SDS011;9121;50.926;5.340;2022-07-29T15:23:45;5.38;;;2.13;;
17991;SDS011;9121;50.926;5.340;2022-07-29T15:26:12;4.93;;;1.85;;
17991;SDS011;9121;50.926;5.340;2022-07-29T15:28:40;4.63;;;1.90;;